createdAt,value
2019-04-22T00:00:04.384Z,16.75
2019-04-22T00:01:16.831Z,16.73
2019-04-22T00:02:13.287Z,16.73
2019-04-22T00:03:14.188Z,16.73
2019-04-22T00:04:19.801Z,16.73
2019-04-22T00:05:48.223Z,16.73
2019-04-22T00:08:24.056Z,16.67
2019-04-22T00:09:23.704Z,16.66
2019-04-22T00:10:32.023Z,16.64
2019-04-22T00:11:28.649Z,16.62
2019-04-22T00:12:40.290Z,16.63
2019-04-22T00:14:46.151Z,16.57
2019-04-22T00:17:53.152Z,16.53
2019-04-22T00:18:42.513Z,16.54
2019-04-22T00:19:50.390Z,16.53
2019-04-22T00:20:35.063Z,16.52
2019-04-22T00:21:25.348Z,16.52
2019-04-22T00:22:31.573Z,16.5
2019-04-22T00:23:18.244Z,16.53
2019-04-22T00:24:29.803Z,16.52
2019-04-22T00:25:19.203Z,16.49
2019-04-22T00:26:22.263Z,16.49
2019-04-22T00:27:40.415Z,16.5
2019-04-22T00:28:43.406Z,16.5
2019-04-22T00:31:01.801Z,16.49
2019-04-22T00:32:17.839Z,16.43
2019-04-22T00:33:12.860Z,16.42
2019-04-22T00:34:08.063Z,16.4
2019-04-22T00:37:00.128Z,16.39
2019-04-22T00:38:23.265Z,16.35
2019-04-22T00:39:45.964Z,16.37
2019-04-22T00:41:28.394Z,16.33
2019-04-22T00:42:34.588Z,16.29
2019-04-22T00:43:24.066Z,16.28
2019-04-22T00:44:31.127Z,16.29
2019-04-22T00:45:32.727Z,16.24
2019-04-22T00:47:27.730Z,16.21
2019-04-22T00:48:26.944Z,16.16
2019-04-22T00:50:18.672Z,16.18
2019-04-22T00:50:29.779Z,16.15
2019-04-22T00:51:56.732Z,16.14
2019-04-22T00:52:27.918Z,16.11
2019-04-22T00:53:34.096Z,16.08
2019-04-22T00:54:21.267Z,16.09
2019-04-22T00:55:24.401Z,16.08
2019-04-22T00:56:00.193Z,16.05
2019-04-22T00:57:08.524Z,16.05
2019-04-22T00:58:23.889Z,16.02
2019-04-22T00:59:22.979Z,16.02
2019-04-22T01:00:05.222Z,15.98
2019-04-22T01:01:30.935Z,15.98
2019-04-22T01:02:47.467Z,15.95
2019-04-22T01:03:19.317Z,15.98
2019-04-22T01:04:38.935Z,15.95
2019-04-22T01:05:21.203Z,15.97
2019-04-22T01:09:38.115Z,15.95
2019-04-22T01:10:31.566Z,15.95
2019-04-22T01:12:31.496Z,15.92
2019-04-22T01:13:11.224Z,15.92
2019-04-22T01:15:33.494Z,15.88
2019-04-22T01:16:27.894Z,15.91
2019-04-22T01:17:25.430Z,15.87
2019-04-22T01:18:09.146Z,15.87
2019-04-22T01:19:12.077Z,15.87
2019-04-22T01:21:43.433Z,15.82
2019-04-22T01:22:15.882Z,15.82
2019-04-22T01:22:58.415Z,15.78
2019-04-22T01:24:08.556Z,15.8
2019-04-22T01:24:55.479Z,15.81
2019-04-22T01:26:48.876Z,15.78
2019-04-22T01:27:48.483Z,15.77
2019-04-22T01:28:45.766Z,15.77
2019-04-22T01:29:40.887Z,15.76
2019-04-22T01:30:34.691Z,15.71
2019-04-22T01:31:21.736Z,15.71
2019-04-22T01:32:15.187Z,15.71
2019-04-22T01:33:28.989Z,15.69
2019-04-22T01:34:49.817Z,15.64
2019-04-22T01:35:38.510Z,15.64
2019-04-22T01:36:41.316Z,15.63
2019-04-22T01:37:59.647Z,15.62
2019-04-22T01:38:51.023Z,15.57
2019-04-22T01:40:16.460Z,15.57
2019-04-22T01:41:41.557Z,15.56
2019-04-22T01:43:40.620Z,15.54
2019-04-22T01:45:31.088Z,15.49
2019-04-22T01:46:36.487Z,15.47
2019-04-22T01:47:36.160Z,15.46
2019-04-22T01:48:17.445Z,15.46
2019-04-22T01:49:33.162Z,15.49
2019-04-22T01:50:30.505Z,15.46
2019-04-22T01:51:28.095Z,15.45
2019-04-22T01:53:26.920Z,15.43
2019-04-22T01:54:39.631Z,15.41
2019-04-22T01:57:17.085Z,15.35
2019-04-22T01:58:05.504Z,15.35
2019-04-22T01:59:04.739Z,15.28
2019-04-22T01:59:55.971Z,15.28
2019-04-22T02:00:53.094Z,15.25
2019-04-22T02:02:35.217Z,15.23
2019-04-22T02:03:25.409Z,15.22
2019-04-22T02:04:31.480Z,15.18
2019-04-22T02:05:33.888Z,15.17
2019-04-22T02:06:05.412Z,15.14
2019-04-22T02:07:33.607Z,15.12
2019-04-22T02:08:44.490Z,15.09
2019-04-22T02:09:30.955Z,15.05
2019-04-22T02:10:54.270Z,15.07
2019-04-22T02:12:38.452Z,15.04
2019-04-22T02:13:21.184Z,15.05
2019-04-22T02:14:38.573Z,15.04
2019-04-22T02:15:16.534Z,15.02
2019-04-22T02:16:33.528Z,15.02
2019-04-22T02:17:36.468Z,15.05
2019-04-22T02:18:37.604Z,15.05
2019-04-22T02:19:52.923Z,15.04
2019-04-22T02:20:30.973Z,15.05
2019-04-22T02:21:19.988Z,15.05
2019-04-22T02:22:17.444Z,15.05
2019-04-22T02:27:38.815Z,15.04
2019-04-22T02:29:28.613Z,15
2019-04-22T02:33:10.826Z,14.91
2019-04-22T02:34:32.282Z,14.9
2019-04-22T02:36:07.786Z,14.9
2019-04-22T02:38:58.255Z,14.87
2019-04-22T02:40:55.768Z,14.87
2019-04-22T02:43:23.251Z,14.9
2019-04-22T02:46:12.600Z,14.9
2019-04-22T02:49:52.460Z,14.9
2019-04-22T02:50:43.182Z,14.9
2019-04-22T02:51:51.915Z,14.88
2019-04-22T02:52:49.486Z,14.87
2019-04-22T02:57:39.076Z,14.81
2019-04-22T03:01:40.998Z,14.77
2019-04-22T03:02:40.698Z,14.77
2019-04-22T03:04:36.936Z,14.74
2019-04-22T03:06:05.059Z,14.72
2019-04-22T03:08:45.329Z,14.64
2019-04-22T03:10:54.506Z,14.6
2019-04-22T03:11:56.344Z,14.58
2019-04-22T03:15:40.480Z,14.35
2019-04-22T03:17:38.065Z,14.32
2019-04-22T03:20:49.861Z,14.29
2019-04-22T03:22:54.835Z,14.29
2019-04-22T03:24:05.668Z,14.31
2019-04-22T03:25:13.876Z,14.29
2019-04-22T03:26:31.647Z,14.28
2019-04-22T03:28:18.389Z,14.21
2019-04-22T03:32:12.382Z,14.14
2019-04-22T03:34:14.129Z,14.1
2019-04-22T03:35:18.754Z,14.02
2019-04-22T03:38:40.831Z,13.91
2019-04-22T03:40:19.436Z,13.9
2019-04-22T03:45:37.586Z,13.74
2019-04-22T03:50:42.146Z,13.82
2019-04-22T03:55:38.182Z,13.83
2019-04-22T04:02:37.415Z,13.74
2019-04-22T04:03:50.473Z,13.72
2019-04-22T04:04:40.824Z,13.72
2019-04-22T04:05:52.357Z,13.73
2019-04-22T04:06:49.488Z,13.67
2019-04-22T04:08:38.492Z,13.7
2019-04-22T04:10:52.582Z,13.72
2019-04-22T04:11:42.562Z,13.7
2019-04-22T04:16:38.569Z,13.6
2019-04-22T04:21:46.644Z,13.55
2019-04-22T04:26:54.545Z,13.56
2019-04-22T04:30:13.572Z,13.56
2019-04-22T04:31:40.467Z,13.57
2019-04-22T04:33:46.349Z,13.59
2019-04-22T04:42:04.530Z,13.63
2019-04-22T04:43:46.368Z,13.63
2019-04-22T04:48:41.778Z,13.64
2019-04-22T04:53:24.260Z,13.55
2019-04-22T04:54:35.316Z,13.47
2019-04-22T04:55:45.389Z,13.5
2019-04-22T04:56:39.769Z,13.5
2019-04-22T04:58:46.030Z,13.46
2019-04-22T05:01:58.081Z,13.46
2019-04-22T05:05:47.344Z,13.47
2019-04-22T05:06:42.473Z,13.46
2019-04-22T05:07:40.155Z,13.47
2019-04-22T05:11:51.725Z,13.53
2019-04-22T05:12:56.487Z,13.56
2019-04-22T05:15:42.631Z,13.59
2019-04-22T05:16:53.873Z,13.59
2019-04-22T05:17:43.046Z,13.6
2019-04-22T05:19:56.436Z,13.62
2019-04-22T05:20:50.434Z,13.62
2019-04-22T05:21:21.346Z,13.6
2019-04-22T05:23:52.221Z,13.62
2019-04-22T05:24:50.509Z,13.6
2019-04-22T05:25:26.382Z,13.6
2019-04-22T05:26:32.363Z,13.63
2019-04-22T05:27:33.928Z,13.62
2019-04-22T05:29:04.927Z,13.66
2019-04-22T05:29:35.933Z,13.64
2019-04-22T05:30:45.549Z,13.66
2019-04-22T05:31:37.014Z,13.67
2019-04-22T05:32:36.838Z,13.67
2019-04-22T05:33:27.307Z,13.7
2019-04-22T05:34:33.271Z,13.69
2019-04-22T05:36:32.594Z,13.69
2019-04-22T05:37:32.634Z,13.7
2019-04-22T05:38:32.884Z,13.7
2019-04-22T05:39:35.486Z,13.7
2019-04-22T05:40:34.007Z,13.73
2019-04-22T05:41:28.555Z,13.72
2019-04-22T05:42:28.231Z,13.76
2019-04-22T05:43:20.937Z,13.72
2019-04-22T05:44:40.716Z,13.74
2019-04-22T05:45:31.010Z,13.74
2019-04-22T05:46:28.139Z,13.77
2019-04-22T05:47:13.919Z,13.79
2019-04-22T05:48:32.889Z,13.77
2019-04-22T05:49:28.544Z,13.79
2019-04-22T05:50:36.523Z,13.8
2019-04-22T05:51:00.895Z,13.79
2019-04-22T05:52:31.362Z,13.82
2019-04-22T05:53:06.344Z,13.83
2019-04-22T05:54:27.185Z,13.84
2019-04-22T05:57:30.883Z,13.87
2019-04-22T05:58:08.138Z,13.9
2019-04-22T05:59:30.610Z,13.91
2019-04-22T06:00:40.232Z,13.93
2019-04-22T06:02:39.119Z,13.96
2019-04-22T06:03:28.163Z,13.98
2019-04-22T06:04:29.181Z,14.05
2019-04-22T06:05:30.134Z,14.01
2019-04-22T06:06:28.597Z,14.07
2019-04-22T06:07:26.057Z,14.05
2019-04-22T06:08:03.507Z,14.05
2019-04-22T06:09:14.481Z,14.04
2019-04-22T06:12:12.025Z,14.11
2019-04-22T06:12:56.123Z,14.12
2019-04-22T06:14:13.529Z,14.15
2019-04-22T06:15:18.134Z,14.15
2019-04-22T06:16:25.534Z,14.19
2019-04-22T06:17:29.891Z,14.22
2019-04-22T06:19:24.299Z,14.29
2019-04-22T06:20:32.022Z,14.35
2019-04-22T06:21:32.533Z,14.33
2019-04-22T06:23:39.107Z,14.38
2019-04-22T06:25:36.506Z,14.45
2019-04-22T06:27:27.598Z,14.48
2019-04-22T06:30:28.215Z,14.53
2019-04-22T06:33:25.895Z,14.6
2019-04-22T06:34:35.541Z,14.6
2019-04-22T06:35:55.926Z,14.63
2019-04-22T06:36:35.747Z,14.66
2019-04-22T06:37:33.524Z,14.69
2019-04-22T06:38:51.222Z,14.7
2019-04-22T06:39:27.661Z,14.76
2019-04-22T06:40:38.964Z,14.74
2019-04-22T06:41:27.108Z,14.79
2019-04-22T06:43:27.623Z,14.83
2019-04-22T06:44:35.765Z,14.84
2019-04-22T06:45:28.453Z,14.88
2019-04-22T06:46:26.973Z,14.9
2019-04-22T06:47:43.686Z,14.9
2019-04-22T06:50:30.082Z,14.97
2019-04-22T06:51:36.882Z,14.98
2019-04-22T06:52:27.781Z,15.02
2019-04-22T06:53:23.551Z,15.04
2019-04-22T06:55:45.240Z,15.09
2019-04-22T06:56:34.577Z,15.11
2019-04-22T06:57:25.067Z,15.15
2019-04-22T06:58:28.102Z,15.22
2019-04-22T06:59:11.252Z,15.28
2019-04-22T07:00:30.352Z,15.28
2019-04-22T07:01:24.073Z,15.34
2019-04-22T07:02:44.941Z,15.38
2019-04-22T07:04:21.113Z,15.46
2019-04-22T07:05:21.548Z,15.5
2019-04-22T07:06:34.661Z,15.54
2019-04-22T07:08:38.929Z,15.62
2019-04-22T07:09:53.030Z,15.62
2019-04-22T07:11:49.321Z,15.66
2019-04-22T07:14:28.065Z,15.71
2019-04-22T07:15:23.007Z,15.73
2019-04-22T07:20:36.142Z,15.92
2019-04-22T07:21:19.245Z,15.97
2019-04-22T07:22:33.325Z,15.98
2019-04-22T07:23:46.845Z,16.05
2019-04-22T07:26:19.835Z,16.15
2019-04-22T07:29:24.746Z,16.22
2019-04-22T07:30:26.055Z,16.22
2019-04-22T07:31:42.323Z,16.26
2019-04-22T07:32:33.177Z,16.28
2019-04-22T07:34:26.320Z,16.36
2019-04-22T07:38:29.441Z,16.47
2019-04-22T07:39:29.539Z,16.47
2019-04-22T07:41:31.570Z,16.54
2019-04-22T07:42:18.632Z,16.56
2019-04-22T07:43:39.588Z,16.6
2019-04-22T07:45:35.710Z,16.64
2019-04-22T07:47:43.974Z,16.77
2019-04-22T07:48:44.594Z,16.81
2019-04-22T07:51:32.512Z,16.86
2019-04-22T07:52:27.176Z,16.9
2019-04-22T07:53:27.606Z,16.94
2019-04-22T07:54:25.670Z,16.95
2019-04-22T07:55:16.191Z,17.02
2019-04-22T07:56:11.625Z,17.02
2019-04-22T07:57:19.550Z,17.11
2019-04-22T07:58:28.525Z,17.15
2019-04-22T07:59:33.712Z,17.19
2019-04-22T08:00:54.844Z,17.22
2019-04-22T08:01:35.175Z,17.27
2019-04-22T08:02:31.586Z,17.27
2019-04-22T08:03:37.103Z,17.33
2019-04-22T08:04:53.602Z,17.35
2019-04-22T08:07:23.632Z,17.44
2019-04-22T08:09:26.481Z,17.61
2019-04-22T08:10:48.146Z,17.61
2019-04-22T08:11:49.571Z,17.66
2019-04-22T08:12:26.112Z,17.73
2019-04-22T08:13:16.563Z,17.8
2019-04-22T08:15:32.204Z,17.87
2019-04-22T08:16:22.716Z,17.87
2019-04-22T08:19:41.532Z,18.08
2019-04-22T08:20:33.211Z,18.09
2019-04-22T08:21:29.358Z,18.11
2019-04-22T08:23:15.979Z,18.2
2019-04-22T08:24:28.266Z,18.23
2019-04-22T08:25:31.250Z,18.3
2019-04-22T08:26:27.207Z,18.37
2019-04-22T08:27:34.958Z,18.46
2019-04-22T08:28:30.141Z,18.5
2019-04-22T08:29:44.904Z,18.54
2019-04-22T08:31:35.089Z,18.6
2019-04-22T08:32:34.325Z,18.64
2019-04-22T08:33:28.693Z,18.75
2019-04-22T08:34:46.794Z,18.75
2019-04-22T08:39:24.854Z,18.95
2019-04-22T08:40:41.639Z,19.12
2019-04-22T08:41:37.035Z,19.15
2019-04-22T08:44:38.646Z,19.3
2019-04-22T08:46:48.406Z,19.32
2019-04-22T08:47:35.783Z,19.34
2019-04-22T08:48:14.865Z,19.33
2019-04-22T08:49:40.686Z,19.34
2019-04-22T08:50:38.659Z,19.44
2019-04-22T08:51:29.141Z,19.5
2019-04-22T08:52:27.099Z,19.57
2019-04-22T08:53:31.241Z,19.65
2019-04-22T08:54:29.586Z,19.64
2019-04-22T08:55:31.162Z,19.67
2019-04-22T08:57:46.703Z,19.74
2019-04-22T08:59:27.775Z,19.82
2019-04-22T09:00:29.050Z,19.79
2019-04-22T09:01:37.559Z,19.91
2019-04-22T09:02:32.349Z,19.96
2019-04-22T09:03:37.374Z,19.93
2019-04-22T09:04:22.658Z,19.98
2019-04-22T09:04:47.852Z,20.02
2019-04-22T09:08:40.309Z,20.15
2019-04-22T09:09:31.039Z,20.2
2019-04-22T09:10:29.580Z,20.3
2019-04-22T09:11:41.297Z,20.29
2019-04-22T09:12:34.247Z,20.33
2019-04-22T09:15:30.285Z,20.51
2019-04-22T09:16:31.431Z,20.57
2019-04-22T09:17:39.405Z,20.61
2019-04-22T09:19:28.249Z,20.7
2019-04-22T09:20:25.739Z,20.78
2019-04-22T09:21:32.482Z,20.82
2019-04-22T09:23:30.000Z,20.91
2019-04-22T09:24:29.024Z,20.98
2019-04-22T09:25:23.880Z,21.07
2019-04-22T09:26:22.559Z,21.12
2019-04-22T09:27:37.902Z,21.12
2019-04-22T09:28:30.368Z,21.17
2019-04-22T09:31:28.552Z,21.27
2019-04-22T09:32:26.129Z,21.3
2019-04-22T09:33:36.667Z,21.29
2019-04-22T09:35:31.384Z,21.29
2019-04-22T09:36:28.699Z,21.32
2019-04-22T09:37:38.871Z,21.3
2019-04-22T09:39:29.261Z,21.3
2019-04-22T09:40:34.065Z,21.36
2019-04-22T09:41:26.948Z,21.39
2019-04-22T09:42:31.597Z,21.43
2019-04-22T09:43:31.423Z,21.49
2019-04-22T09:44:35.775Z,21.49
2019-04-22T09:45:27.291Z,21.54
2019-04-22T09:46:20.990Z,21.58
2019-04-22T09:47:33.418Z,21.61
2019-04-22T09:48:36.911Z,21.65
2019-04-22T09:49:44.110Z,21.68
2019-04-22T09:50:34.545Z,21.69
2019-04-22T09:51:30.556Z,21.72
2019-04-22T09:52:14.720Z,21.77
2019-04-22T09:53:28.410Z,21.85
2019-04-22T09:54:52.667Z,21.84
2019-04-22T09:57:20.891Z,21.99
2019-04-22T09:58:15.818Z,21.99
2019-04-22T09:59:26.990Z,22.01
2019-04-22T10:00:37.240Z,22.08
2019-04-22T10:01:27.456Z,22.12
2019-04-22T10:03:36.131Z,22.15
2019-04-22T10:04:24.713Z,22.2
2019-04-22T10:05:49.657Z,22.2
2019-04-22T10:06:36.520Z,22.23
2019-04-22T10:07:25.537Z,22.29
2019-04-22T10:08:31.447Z,22.23
2019-04-22T10:11:12.566Z,22.37
2019-04-22T10:12:31.452Z,22.53
2019-04-22T10:13:11.900Z,22.56
2019-04-22T10:14:30.609Z,22.58
2019-04-22T10:15:19.378Z,22.58
2019-04-22T10:16:47.753Z,22.57
2019-04-22T10:17:31.249Z,22.6
2019-04-22T10:18:08.859Z,22.6
2019-04-22T10:19:40.752Z,22.61
2019-04-22T10:20:10.031Z,22.6
2019-04-22T10:21:39.870Z,22.63
2019-04-22T10:24:24.308Z,22.64
2019-04-22T10:25:10.295Z,22.65
2019-04-22T10:26:33.231Z,22.7
2019-04-22T10:27:25.762Z,22.68
2019-04-22T10:28:38.343Z,22.71
2019-04-22T10:29:34.768Z,22.74
2019-04-22T10:30:42.806Z,22.74
2019-04-22T10:31:30.738Z,22.71
2019-04-22T10:32:28.933Z,22.71
2019-04-22T10:33:55.908Z,22.76
2019-04-22T10:34:31.141Z,22.74
2019-04-22T10:35:15.190Z,22.78
2019-04-22T10:36:01.619Z,22.79
2019-04-22T10:37:15.143Z,22.82
2019-04-22T10:38:00.759Z,22.86
2019-04-22T10:39:00.330Z,22.86
2019-04-22T10:40:10.984Z,22.81
2019-04-22T10:41:01.011Z,22.81
2019-04-22T10:42:00.098Z,22.81
2019-04-22T10:43:01.326Z,22.76
2019-04-22T10:44:01.387Z,22.75
2019-04-22T10:45:01.182Z,22.74
2019-04-22T10:46:00.037Z,22.71
2019-04-22T10:47:00.177Z,22.71
2019-04-22T10:48:01.770Z,22.71
2019-04-22T10:49:00.246Z,22.7
2019-04-22T10:50:00.810Z,22.67
2019-04-22T10:51:01.106Z,22.67
2019-04-22T10:52:00.898Z,22.67
2019-04-22T10:53:01.268Z,22.64
2019-04-22T10:53:59.997Z,22.64
2019-04-22T10:55:01.577Z,22.64
2019-04-22T10:56:01.163Z,22.63
2019-04-22T10:57:01.146Z,22.64
2019-04-22T10:58:00.088Z,22.65
2019-04-22T10:59:00.661Z,22.65
2019-04-22T11:00:01.059Z,22.67
2019-04-22T11:01:00.363Z,22.75
2019-04-22T11:02:01.542Z,22.76
2019-04-22T11:03:00.241Z,22.75
2019-04-22T11:04:01.637Z,22.82
2019-04-22T11:05:00.027Z,22.84
2019-04-22T11:06:01.394Z,22.89
2019-04-22T11:07:10.912Z,22.94
2019-04-22T11:08:09.832Z,22.94
2019-04-22T11:09:08.171Z,22.95
2019-04-22T11:11:38.331Z,23.02
2019-04-22T11:12:19.026Z,23.01
2019-04-22T11:13:01.117Z,23.01
2019-04-22T11:14:00.254Z,23.02
2019-04-22T11:15:00.289Z,23.02
2019-04-22T11:16:00.683Z,23.01
2019-04-22T11:17:06.701Z,22.96
2019-04-22T11:17:59.951Z,23.01
2019-04-22T11:19:01.540Z,23.02
2019-04-22T11:19:59.943Z,23.01
2019-04-22T11:20:59.984Z,23.01
2019-04-22T11:22:22.747Z,23.01
2019-04-22T11:23:00.799Z,22.99
2019-04-22T11:24:00.871Z,22.98
2019-04-22T11:25:01.409Z,22.99
2019-04-22T11:26:00.027Z,23.02
2019-04-22T11:27:01.239Z,22.99
2019-04-22T11:28:00.224Z,23.01
2019-04-22T11:29:01.639Z,22.99
2019-04-22T11:30:03.504Z,23.02
2019-04-22T11:31:00.997Z,23.06
2019-04-22T11:32:00.297Z,23.11
2019-04-22T11:33:00.600Z,23.15
2019-04-22T11:34:01.038Z,23.19
2019-04-22T11:35:01.852Z,23.19
2019-04-22T11:36:00.136Z,23.2
2019-04-22T11:37:01.170Z,23.25
2019-04-22T11:38:01.258Z,23.25
2019-04-22T11:39:09.244Z,23.26
2019-04-22T11:40:25.253Z,23.33
2019-04-22T11:41:05.296Z,23.36
2019-04-22T11:42:00.543Z,23.33
2019-04-22T11:43:00.126Z,23.41
2019-04-22T11:44:01.443Z,23.47
2019-04-22T11:45:01.507Z,23.53
2019-04-22T11:45:59.932Z,23.53
2019-04-22T11:47:01.706Z,23.56
2019-04-22T11:48:01.634Z,23.56
2019-04-22T11:49:00.433Z,23.56
2019-04-22T11:49:59.930Z,23.56
2019-04-22T11:51:00.267Z,23.61
2019-04-22T11:52:01.176Z,23.62
2019-04-22T11:53:00.912Z,23.64
2019-04-22T11:54:01.172Z,23.68
2019-04-22T11:55:01.282Z,23.68
2019-04-22T11:56:00.723Z,23.69
2019-04-22T11:57:01.254Z,23.75
2019-04-22T11:58:01.249Z,23.84
2019-04-22T11:59:00.835Z,23.88
2019-04-22T12:00:01.123Z,23.95
2019-04-22T12:01:01.264Z,24.08
2019-04-22T12:02:00.743Z,24.13
2019-04-22T12:03:00.982Z,24.24
2019-04-22T12:04:00.068Z,24.29
2019-04-22T12:04:59.912Z,24.35
2019-04-22T12:05:59.960Z,24.4
2019-04-22T12:07:00.291Z,24.44
2019-04-22T12:07:59.909Z,24.51
2019-04-22T12:09:01.749Z,24.57
2019-04-22T12:10:34.625Z,24.5
2019-04-22T12:11:07.615Z,24.6
2019-04-22T12:12:00.137Z,24.74
2019-04-22T12:13:00.041Z,24.85
2019-04-22T12:14:00.311Z,24.89
2019-04-22T12:15:00.900Z,24.95
2019-04-22T12:16:01.038Z,25.02
2019-04-22T12:17:01.747Z,25.03
2019-04-22T12:18:01.550Z,24.97
2019-04-22T12:19:00.988Z,24.99
2019-04-22T12:20:08.317Z,24.99
2019-04-22T12:21:01.427Z,24.98
2019-04-22T12:22:00.811Z,24.99
2019-04-22T12:23:01.261Z,24.99
2019-04-22T12:24:01.238Z,25.06
2019-04-22T12:25:00.710Z,25.02
2019-04-22T12:26:16.202Z,25.05
2019-04-22T12:27:00.405Z,25.09
2019-04-22T12:28:01.235Z,25.12
2019-04-22T12:28:59.907Z,25.16
2019-04-22T12:30:01.007Z,25.19
2019-04-22T12:30:59.889Z,25.23
2019-04-22T12:31:59.934Z,25.13
2019-04-22T12:33:00.258Z,25.19
2019-04-22T12:34:01.603Z,24.97
2019-04-22T12:34:59.972Z,24.99
2019-04-22T12:36:00.547Z,25.06
2019-04-22T12:37:00.568Z,25.09
2019-04-22T12:38:10.672Z,25.06
2019-04-22T12:39:00.086Z,25.08
2019-04-22T12:40:00.501Z,25.02
2019-04-22T12:41:11.577Z,24.85
2019-04-22T12:42:00.477Z,24.81
2019-04-22T12:43:09.924Z,24.78
2019-04-22T12:44:01.122Z,24.78
2019-04-22T12:45:00.577Z,24.68
2019-04-22T12:46:00.603Z,24.7
2019-04-22T12:47:06.098Z,24.65
2019-04-22T12:48:00.269Z,24.58
2019-04-22T12:49:00.439Z,24.57
2019-04-22T12:50:25.943Z,24.58
2019-04-22T12:51:01.048Z,24.6
2019-04-22T12:52:01.204Z,24.61
2019-04-22T12:53:14.790Z,24.63
2019-04-22T12:54:01.475Z,24.54
2019-04-22T12:54:59.912Z,24.6
2019-04-22T12:56:03.042Z,24.55
2019-04-22T12:57:01.898Z,24.55
2019-04-22T12:58:02.973Z,24.6
2019-04-22T12:59:01.469Z,24.68
2019-04-22T12:59:59.908Z,24.81
2019-04-22T13:01:01.363Z,24.86
2019-04-22T13:02:00.827Z,25.03
2019-04-22T13:03:01.271Z,24.99
2019-04-22T13:04:13.549Z,24.98
2019-04-22T13:05:00.846Z,25.05
2019-04-22T13:05:59.889Z,25.06
2019-04-22T13:06:59.858Z,25.06
2019-04-22T13:08:00.355Z,25.06
2019-04-22T13:09:00.473Z,24.95
2019-04-22T13:10:01.682Z,24.95
2019-04-22T13:11:16.409Z,24.98
2019-04-22T13:12:01.341Z,24.92
2019-04-22T13:13:01.005Z,24.88
2019-04-22T13:14:01.113Z,24.91
2019-04-22T13:15:06.445Z,24.89
2019-04-22T13:15:59.873Z,24.83
2019-04-22T13:16:59.882Z,24.74
2019-04-22T13:17:31.268Z,"  24.74"
2019-04-22T13:18:39.493Z,"  24.74"
2019-04-22T13:19:30.280Z,"  24.77"
2019-04-22T13:20:30.475Z,"  24.79"
2019-04-22T13:21:31.121Z,"  24.81"
2019-04-22T13:22:30.605Z,"  24.86"
2019-04-22T13:23:29.962Z,"  24.77"
2019-04-22T13:24:30.171Z,"  24.78"
2019-04-22T13:25:32.260Z,"  24.72"
2019-04-22T13:26:31.963Z,"  24.77"
2019-04-22T13:27:30.898Z,"  24.81"
2019-04-22T13:28:31.368Z,"  24.89"
2019-04-22T13:29:31.113Z,"  24.98"
2019-04-22T13:30:30.531Z,"  25.03"
2019-04-22T13:31:30.940Z,"  25.09"
2019-04-22T13:32:31.346Z,"  25.15"
2019-04-22T13:33:30.613Z,"  25.22"
2019-04-22T13:34:37.559Z,"  25.32"
2019-04-22T13:35:29.964Z,"  25.46"
2019-04-22T13:36:31.549Z,"  25.50"
2019-04-22T13:37:30.814Z,"  25.60"
2019-04-22T13:38:31.149Z,"  25.70"
2019-04-22T13:39:31.313Z,"  25.77"
2019-04-22T13:40:30.817Z,"  25.82"
2019-04-22T13:41:37.665Z,"  25.91"
2019-04-22T13:42:31.266Z,"  26.05"
2019-04-22T13:43:31.224Z,"  26.16"
2019-04-22T13:44:31.325Z,"  26.26"
2019-04-22T13:45:30.033Z,"  26.26"
2019-04-22T13:46:31.697Z,"  26.36"
2019-04-22T13:47:46.430Z,"  26.46"
2019-04-22T13:48:53.825Z,"  26.44"
2019-04-22T13:50:11.664Z,"  26.30"
2019-04-22T13:51:08.096Z,"  26.43"
2019-04-22T13:54:29.596Z,"  26.05"
2019-04-22T13:56:50.564Z,"  26.60"
2019-04-22T13:57:50.326Z,"  26.55"
2019-04-22T13:58:44.736Z,"  26.61"
2019-04-22T13:59:36.622Z,"  26.58"
2019-04-22T14:00:31.022Z,"  26.60"
2019-04-22T14:01:30.330Z,"  26.62"
2019-04-22T14:02:30.660Z,"  26.70"
2019-04-22T14:03:30.888Z,"  26.71"
2019-04-22T14:04:30.443Z,"  26.84"
2019-04-22T14:05:31.034Z,"  26.94"
2019-04-22T14:06:31.126Z,"  26.98"
2019-04-22T14:07:30.717Z,"  26.99"
2019-04-22T14:08:31.336Z,"  27.01"
2019-04-22T14:09:30.569Z,"  26.82"
2019-04-22T14:10:30.303Z,"  26.71"
2019-04-22T14:11:36.691Z,"  26.60"
2019-04-22T14:12:30.793Z,"  26.53"
2019-04-22T14:13:30.096Z,"  26.17"
2019-04-22T14:14:30.258Z,"  26.22"
2019-04-22T14:15:29.945Z,"  26.33"
2019-04-22T14:16:31.142Z,"  26.32"
2019-04-22T14:17:31.388Z,"  26.40"
2019-04-22T14:18:30.713Z,"  26.39"
2019-04-22T14:19:29.968Z,"  26.46"
2019-04-22T14:20:31.428Z,"  26.42"
2019-04-22T14:21:30.611Z,"  26.51"
2019-04-22T14:22:30.530Z,"  26.42"
2019-04-22T14:23:30.853Z,"  26.50"
2019-04-22T14:24:30.109Z,"  26.62"
2019-04-22T14:25:30.477Z,"  26.68"
2019-04-22T14:26:44.167Z,"  26.70"
2019-04-22T14:27:41.897Z,"  26.74"
2019-04-22T14:28:31.329Z,"  26.74"
2019-04-22T14:29:31.322Z,"  26.68"
2019-04-22T14:30:30.522Z,"  26.65"
2019-04-22T14:31:30.748Z,"  26.68"
2019-04-22T14:32:31.821Z,"  26.68"
2019-04-22T14:33:30.356Z,"  26.61"
2019-04-22T14:34:30.271Z,"  26.47"
2019-04-22T14:35:31.184Z,"  26.43"
2019-04-22T14:36:29.911Z,"  26.43"
2019-04-22T14:37:29.957Z,"  26.39"
2019-04-22T14:38:30.368Z,"  26.37"
2019-04-22T14:39:30.427Z,"  26.34"
2019-04-22T14:40:30.386Z,"  26.36"
2019-04-22T14:41:40.591Z,"  26.39"
2019-04-22T14:42:52.044Z,"  26.46"
2019-04-22T14:44:00.652Z,"  26.53"
2019-04-22T14:46:04.059Z,"  26.65"
2019-04-22T14:47:03.503Z,"  26.75"
2019-04-22T14:47:54.065Z,"  26.87"
2019-04-22T14:48:49.403Z,"  26.95"
2019-04-22T14:49:52.858Z,"  26.98"
2019-04-22T14:50:51.637Z,"  27.02"
2019-04-22T14:51:53.432Z,"  26.99"
2019-04-22T14:52:52.360Z,"  26.89"
2019-04-22T14:53:47.247Z,"  26.85"
2019-04-22T14:54:43.527Z,"  26.82"
2019-04-22T14:55:33.277Z,"  26.71"
2019-04-22T14:56:30.536Z,"  26.67"
2019-04-22T14:57:31.727Z,"  26.65"
2019-04-22T14:58:31.076Z,"  26.58"
2019-04-22T14:59:31.176Z,"  26.51"
2019-04-22T15:00:29.915Z,"  26.53"
2019-04-22T15:01:30.757Z,"  26.42"
2019-04-22T15:02:29.893Z,"  26.47"
2019-04-22T15:03:31.412Z,"  26.43"
2019-04-22T15:04:31.055Z,"  26.51"
2019-04-22T15:05:30.276Z,"  26.51"
2019-04-22T15:06:31.537Z,"  26.46"
2019-04-22T15:07:30.808Z,"  26.54"
2019-04-22T15:08:31.099Z,"  26.47"
2019-04-22T15:09:30.125Z,"  26.47"
2019-04-22T15:10:29.889Z,"  26.40"
2019-04-22T15:11:42.917Z,"  26.32"
2019-04-22T15:12:36.696Z,"  26.29"
2019-04-22T15:13:31.466Z,"  26.33"
2019-04-22T15:14:30.061Z,"  26.39"
2019-04-22T15:15:31.232Z,"  26.39"
2019-04-22T15:16:29.986Z,"  26.42"
2019-04-22T15:17:31.380Z,"  26.46"
2019-04-22T15:18:29.889Z,"  26.46"
2019-04-22T15:19:29.889Z,"  26.50"
2019-04-22T15:20:30.042Z,"  26.48"
2019-04-22T15:21:29.883Z,"  26.50"
2019-04-22T15:22:30.808Z,"  26.64"
2019-04-22T15:23:31.002Z,"  26.62"
2019-04-22T15:24:29.882Z,"  26.75"
2019-04-22T15:25:30.572Z,"  26.82"
2019-04-22T15:26:30.691Z,"  26.85"
2019-04-22T15:27:31.136Z,"  26.91"
2019-04-22T15:28:31.298Z,"  26.84"
2019-04-22T15:29:31.390Z,"  26.77"
2019-04-22T15:30:29.831Z,"  26.78"
2019-04-22T15:31:31.235Z,"  26.78"
2019-04-22T15:32:29.834Z,"  26.81"
2019-04-22T15:33:29.913Z,"  26.78"
2019-04-22T15:34:30.565Z,"  26.75"
2019-04-22T15:35:31.346Z,"  26.72"
2019-04-22T15:36:30.499Z,"  26.61"
2019-04-22T15:37:31.113Z,"  26.62"
2019-04-22T15:38:30.216Z,"  26.64"
2019-04-22T15:39:31.279Z,"  26.61"
2019-04-22T15:40:30.977Z,"  26.39"
2019-04-22T15:41:30.590Z,"  26.22"
2019-04-22T15:42:35.599Z,"  26.15"
2019-04-22T15:43:33.238Z,"  26.25"
2019-04-22T15:44:30.397Z,"  26.25"
2019-04-22T15:45:30.623Z,"  26.29"
2019-04-22T15:46:29.940Z,"  26.27"
2019-04-22T15:47:09.134Z,"  26.25"
2019-04-22T15:48:08.296Z,"  26.17"
2019-04-22T15:49:07.945Z,"  26.17"
2019-04-22T15:50:08.120Z,"  26.30"
2019-04-22T15:51:08.810Z,"  26.37"
2019-04-22T15:52:08.137Z,"  26.42"
2019-04-22T15:53:09.872Z,"  26.48"
2019-04-22T15:54:07.896Z,"  26.33"
2019-04-22T15:55:09.042Z,"  26.37"
2019-04-22T15:56:08.548Z,"  26.48"
2019-04-22T15:57:09.053Z,"  26.46"
2019-04-22T15:58:08.157Z,"  26.54"
2019-04-22T15:59:27.669Z,"  26.68"
2019-04-22T16:00:22.468Z,"  26.57"
2019-04-22T16:01:14.836Z,"  26.60"
2019-04-22T16:02:08.653Z,"  26.60"
2019-04-22T16:03:10.124Z,"  26.65"
2019-04-22T16:04:08.416Z,"  26.70"
2019-04-22T16:05:08.735Z,"  26.85"